sensor_id;sensor_type;location;lat;lon;timestamp;P1;durP1;ratioP1;P2;durP2;ratioP2
31130;SDS011;20292;50.944;4.034;2022-09-17T00:02:21;7.22;;;1.38;;
31130;SDS011;20292;50.944;4.034;2022-09-17T00:04:49;6.90;;;1.13;;
31130;SDS011;20292;50.944;4.034;2022-09-17T00:07:15;12.30;;;1.52;;
31130;SDS011;20292;50.944;4.034;2022-09-17T00:09:42;10.68;;;1.48;;
31130;SDS011;20292;50.944;4.034;2022-09-17T00:12:08;11.38;;;1.35;;
31130;SDS011;20292;50.944;4.034;2022-09-17T00:14:34;9.10;;;1.55;;
31130;SDS011;20292;50.944;4.034;2022-09-17T00:17:00;13.43;;;1.58;;
31130;SDS011;20292;50.944;4.034;2022-09-17T00:19:25;9.98;;;1.55;;
31130;SDS011;20292;50.944;4.034;2022-09-17T00:21:52;9.52;;;1.35;;
31130;SDS011;20292;50.944;4.034;2022-09-17T00:24:18;9.45;;;1.50;;
31130;SDS011;20292;50.944;4.034;2022-09-17T00:26:45;14.55;;;1.60;;
31130;SDS011;20292;50.944;4.034;2022-09-17T00:29:12;8.45;;;1.50;;
31130;SDS011;20292;50.944;4.034;2022-09-17T00:31:37;13.80;;;1.70;;
31130;SDS011;20292;50.944;4.034;2022-09-17T00:34:04;6.85;;;1.42;;
31130;SDS011;20292;50.944;4.034;2022-09-17T00:36:31;11.85;;;1.40;;
31130;SDS011;20292;50.944;4.034;2022-09-17T00:38:59;11.90;;;1.80;;
31130;SDS011;20292;50.944;4.034;2022-09-17T00:41:26;10.85;;;1.60;;
31130;SDS011;20292;50.944;4.034;2022-09-17T00:44:01;9.88;;;1.35;;
31130;SDS011;20292;50.944;4.034;2022-09-17T00:46:59;10.90;;;1.70;;
31130;SDS011;20292;50.944;4.034;2022-09-17T00:49:26;14.48;;;1.75;;
31130;SDS011;20292;50.944;4.034;2022-09-17T00:52:04;13.43;;;1.63;;
31130;SDS011;20292;50.944;4.034;2022-09-17T00:54:32;11.27;;;1.95;;
31130;SDS011;20292;50.944;4.034;2022-09-17T00:57:00;17.73;;;2.08;;
31130;SDS011;20292;50.944;4.034;2022-09-17T00:59:26;10.85;;;1.70;;
31130;SDS011;20292;50.944;4.034;2022-09-17T01:01:52;9.52;;;1.40;;
31130;SDS011;20292;50.944;4.034;2022-09-17T01:04:20;10.15;;;2.05;;
31130;SDS011;20292;50.944;4.034;2022-09-17T01:07:00;16.35;;;2.20;;
31130;SDS011;20292;50.944;4.034;2022-09-17T01:09:35;17.70;;;2.38;;
31130;SDS011;20292;50.944;4.034;2022-09-17T01:12:14;19.58;;;2.53;;
31130;SDS011;20292;50.944;4.034;2022-09-17T01:22:46;12.23;;;2.05;;
31130;SDS011;20292;50.944;4.034;2022-09-17T01:25:36;15.88;;;2.03;;
31130;SDS011;20292;50.944;4.034;2022-09-17T01:28:45;12.65;;;2.15;;
31130;SDS011;20292;50.944;4.034;2022-09-17T01:31:15;13.68;;;2.08;;
31130;SDS011;20292;50.944;4.034;2022-09-17T01:33:56;19.63;;;2.08;;
31130;SDS011;20292;50.944;4.034;2022-09-17T01:41:47;16.05;;;2.15;;
31130;SDS011;20292;50.944;4.034;2022-09-17T01:44:24;13.77;;;1.83;;
31130;SDS011;20292;50.944;4.034;2022-09-17T01:47:14;16.73;;;2.10;;
31130;SDS011;20292;50.944;4.034;2022-09-17T01:49:44;11.40;;;1.95;;
31130;SDS011;20292;50.944;4.034;2022-09-17T01:52:12;13.38;;;1.85;;
31130;SDS011;20292;50.944;4.034;2022-09-17T01:54:41;18.33;;;2.33;;
31130;SDS011;20292;50.944;4.034;2022-09-17T01:57:24;14.63;;;2.22;;
31130;SDS011;20292;50.944;4.034;2022-09-17T02:00:05;15.25;;;2.40;;
31130;SDS011;20292;50.944;4.034;2022-09-17T02:02:37;13.80;;;2.33;;
31130;SDS011;20292;50.944;4.034;2022-09-17T02:07:49;14.10;;;2.05;;
31130;SDS011;20292;50.944;4.034;2022-09-17T02:10:22;14.95;;;2.25;;
31130;SDS011;20292;50.944;4.034;2022-09-17T02:12:56;9.43;;;1.80;;
31130;SDS011;20292;50.944;4.034;2022-09-17T02:15:31;9.05;;;1.98;;
31130;SDS011;20292;50.944;4.034;2022-09-17T02:20:47;11.38;;;2.13;;
31130;SDS011;20292;50.944;4.034;2022-09-17T02:23:20;13.10;;;2.20;;
31130;SDS011;20292;50.944;4.034;2022-09-17T02:25:52;13.23;;;2.28;;
31130;SDS011;20292;50.944;4.034;2022-09-17T02:31:07;10.75;;;2.20;;
31130;SDS011;20292;50.944;4.034;2022-09-17T02:33:33;11.90;;;2.05;;
31130;SDS011;20292;50.944;4.034;2022-09-17T02:36:01;13.15;;;2.10;;
31130;SDS011;20292;50.944;4.034;2022-09-17T02:38:28;13.30;;;3.13;;
31130;SDS011;20292;50.944;4.034;2022-09-17T02:43:46;19.45;;;2.47;;
31130;SDS011;20292;50.944;4.034;2022-09-17T02:49:09;13.57;;;2.13;;
31130;SDS011;20292;50.944;4.034;2022-09-17T02:57:54;16.38;;;2.72;;
31130;SDS011;20292;50.944;4.034;2022-09-17T03:00:28;16.25;;;2.90;;
31130;SDS011;20292;50.944;4.034;2022-09-17T03:03:01;20.20;;;2.75;;
31130;SDS011;20292;50.944;4.034;2022-09-17T03:05:28;14.68;;;2.13;;
31130;SDS011;20292;50.944;4.034;2022-09-17T03:07:55;22.80;;;2.95;;
31130;SDS011;20292;50.944;4.034;2022-09-17T03:10:21;13.77;;;2.63;;
31130;SDS011;20292;50.944;4.034;2022-09-17T03:12:47;14.75;;;2.30;;
31130;SDS011;20292;50.944;4.034;2022-09-17T03:15:13;22.65;;;2.88;;
31130;SDS011;20292;50.944;4.034;2022-09-17T03:17:39;18.02;;;2.42;;
31130;SDS011;20292;50.944;4.034;2022-09-17T03:20:04;17.08;;;2.20;;
31130;SDS011;20292;50.944;4.034;2022-09-17T03:22:30;17.25;;;2.55;;
31130;SDS011;20292;50.944;4.034;2022-09-17T03:24:56;20.70;;;3.38;;
31130;SDS011;20292;50.944;4.034;2022-09-17T03:27:22;13.60;;;2.33;;
31130;SDS011;20292;50.944;4.034;2022-09-17T03:29:47;21.52;;;2.72;;
31130;SDS011;20292;50.944;4.034;2022-09-17T03:32:13;16.98;;;2.85;;
31130;SDS011;20292;50.944;4.034;2022-09-17T03:34:38;16.10;;;2.50;;
31130;SDS011;20292;50.944;4.034;2022-09-17T03:37:04;19.15;;;2.83;;
31130;SDS011;20292;50.944;4.034;2022-09-17T03:39:29;18.17;;;3.00;;
31130;SDS011;20292;50.944;4.034;2022-09-17T03:41:55;20.52;;;2.85;;
31130;SDS011;20292;50.944;4.034;2022-09-17T03:44:21;28.80;;;3.33;;
31130;SDS011;20292;50.944;4.034;2022-09-17T03:46:47;17.83;;;2.50;;
31130;SDS011;20292;50.944;4.034;2022-09-17T03:49:14;18.60;;;2.67;;
31130;SDS011;20292;50.944;4.034;2022-09-17T03:51:39;27.33;;;3.10;;
31130;SDS011;20292;50.944;4.034;2022-09-17T03:54:05;25.05;;;3.05;;
31130;SDS011;20292;50.944;4.034;2022-09-17T03:56:31;23.52;;;3.58;;
31130;SDS011;20292;50.944;4.034;2022-09-17T03:58:57;25.00;;;3.67;;
31130;SDS011;20292;50.944;4.034;2022-09-17T04:01:23;20.20;;;2.78;;
31130;SDS011;20292;50.944;4.034;2022-09-17T04:03:49;20.90;;;2.85;;
31130;SDS011;20292;50.944;4.034;2022-09-17T04:06:15;16.30;;;2.50;;
31130;SDS011;20292;50.944;4.034;2022-09-17T04:08:40;16.92;;;2.63;;
31130;SDS011;20292;50.944;4.034;2022-09-17T04:11:07;23.80;;;3.13;;
31130;SDS011;20292;50.944;4.034;2022-09-17T04:13:34;21.20;;;2.92;;
31130;SDS011;20292;50.944;4.034;2022-09-17T04:15:59;18.60;;;2.85;;
31130;SDS011;20292;50.944;4.034;2022-09-17T04:18:25;19.05;;;2.92;;
31130;SDS011;20292;50.944;4.034;2022-09-17T04:20:51;15.90;;;2.88;;
31130;SDS011;20292;50.944;4.034;2022-09-17T04:23:17;15.70;;;2.50;;
31130;SDS011;20292;50.944;4.034;2022-09-17T04:25:43;19.88;;;2.65;;
31130;SDS011;20292;50.944;4.034;2022-09-17T04:28:09;15.32;;;2.78;;
31130;SDS011;20292;50.944;4.034;2022-09-17T04:30:35;16.63;;;2.20;;
31130;SDS011;20292;50.944;4.034;2022-09-17T04:33:01;18.75;;;2.83;;
31130;SDS011;20292;50.944;4.034;2022-09-17T04:35:27;21.42;;;3.42;;
31130;SDS011;20292;50.944;4.034;2022-09-17T04:37:53;19.00;;;2.30;;
31130;SDS011;20292;50.944;4.034;2022-09-17T04:40:20;20.15;;;3.00;;
31130;SDS011;20292;50.944;4.034;2022-09-17T04:42:46;15.85;;;2.90;;
31130;SDS011;20292;50.944;4.034;2022-09-17T04:45:12;20.52;;;2.75;;
31130;SDS011;20292;50.944;4.034;2022-09-17T04:47:38;21.75;;;2.60;;
31130;SDS011;20292;50.944;4.034;2022-09-17T04:50:04;19.67;;;3.10;;
31130;SDS011;20292;50.944;4.034;2022-09-17T04:52:31;16.67;;;2.47;;
31130;SDS011;20292;50.944;4.034;2022-09-17T04:54:57;19.13;;;3.30;;
31130;SDS011;20292;50.944;4.034;2022-09-17T04:57:23;20.70;;;2.67;;
31130;SDS011;20292;50.944;4.034;2022-09-17T04:59:50;12.77;;;2.13;;
31130;SDS011;20292;50.944;4.034;2022-09-17T05:02:16;22.02;;;3.40;;
31130;SDS011;20292;50.944;4.034;2022-09-17T05:04:41;16.98;;;3.08;;
31130;SDS011;20292;50.944;4.034;2022-09-17T05:07:07;13.63;;;2.17;;
31130;SDS011;20292;50.944;4.034;2022-09-17T05:09:33;17.40;;;2.58;;
31130;SDS011;20292;50.944;4.034;2022-09-17T05:11:58;18.50;;;2.70;;
31130;SDS011;20292;50.944;4.034;2022-09-17T05:14:24;14.98;;;2.55;;
31130;SDS011;20292;50.944;4.034;2022-09-17T05:16:50;13.73;;;1.92;;
31130;SDS011;20292;50.944;4.034;2022-09-17T05:19:15;9.80;;;1.90;;
31130;SDS011;20292;50.944;4.034;2022-09-17T05:21:41;13.63;;;2.00;;
31130;SDS011;20292;50.944;4.034;2022-09-17T05:24:07;11.40;;;2.42;;
31130;SDS011;20292;50.944;4.034;2022-09-17T05:26:33;11.43;;;1.70;;
31130;SDS011;20292;50.944;4.034;2022-09-17T05:28:58;12.30;;;2.10;;
31130;SDS011;20292;50.944;4.034;2022-09-17T05:31:24;16.27;;;1.92;;
31130;SDS011;20292;50.944;4.034;2022-09-17T05:33:49;14.60;;;2.50;;
31130;SDS011;20292;50.944;4.034;2022-09-17T05:36:15;14.60;;;1.95;;
31130;SDS011;20292;50.944;4.034;2022-09-17T05:38:41;11.70;;;2.20;;
31130;SDS011;20292;50.944;4.034;2022-09-17T05:41:07;17.10;;;2.05;;
31130;SDS011;20292;50.944;4.034;2022-09-17T05:43:32;12.80;;;1.98;;
31130;SDS011;20292;50.944;4.034;2022-09-17T05:46:02;16.10;;;2.28;;
31130;SDS011;20292;50.944;4.034;2022-09-17T05:48:29;10.70;;;1.90;;
31130;SDS011;20292;50.944;4.034;2022-09-17T05:50:55;17.40;;;2.33;;
31130;SDS011;20292;50.944;4.034;2022-09-17T05:53:21;9.35;;;1.92;;
31130;SDS011;20292;50.944;4.034;2022-09-17T05:55:47;15.40;;;2.67;;
31130;SDS011;20292;50.944;4.034;2022-09-17T05:58:14;15.13;;;2.05;;
31130;SDS011;20292;50.944;4.034;2022-09-17T06:00:40;18.98;;;2.42;;
31130;SDS011;20292;50.944;4.034;2022-09-17T06:03:11;19.20;;;2.55;;
31130;SDS011;20292;50.944;4.034;2022-09-17T06:05:37;12.20;;;2.78;;
31130;SDS011;20292;50.944;4.034;2022-09-17T06:08:03;9.82;;;1.83;;
31130;SDS011;20292;50.944;4.034;2022-09-17T06:10:29;16.50;;;2.45;;
31130;SDS011;20292;50.944;4.034;2022-09-17T06:12:56;14.98;;;2.67;;
31130;SDS011;20292;50.944;4.034;2022-09-17T06:15:24;19.08;;;3.50;;
31130;SDS011;20292;50.944;4.034;2022-09-17T06:17:51;15.73;;;2.60;;
31130;SDS011;20292;50.944;4.034;2022-09-17T06:20:17;23.38;;;3.10;;
31130;SDS011;20292;50.944;4.034;2022-09-17T06:22:43;22.17;;;3.30;;
31130;SDS011;20292;50.944;4.034;2022-09-17T06:25:09;14.93;;;2.83;;
31130;SDS011;20292;50.944;4.034;2022-09-17T06:27:35;19.48;;;2.70;;
31130;SDS011;20292;50.944;4.034;2022-09-17T06:30:00;16.17;;;2.40;;
31130;SDS011;20292;50.944;4.034;2022-09-17T06:32:27;14.93;;;1.88;;
31130;SDS011;20292;50.944;4.034;2022-09-17T06:34:53;13.88;;;2.25;;
31130;SDS011;20292;50.944;4.034;2022-09-17T06:37:28;13.23;;;2.20;;
31130;SDS011;20292;50.944;4.034;2022-09-17T06:39:55;14.82;;;2.47;;
31130;SDS011;20292;50.944;4.034;2022-09-17T06:42:22;19.55;;;2.25;;
31130;SDS011;20292;50.944;4.034;2022-09-17T06:44:47;16.27;;;2.33;;
31130;SDS011;20292;50.944;4.034;2022-09-17T06:47:13;10.18;;;2.25;;
31130;SDS011;20292;50.944;4.034;2022-09-17T06:49:38;15.02;;;2.03;;
31130;SDS011;20292;50.944;4.034;2022-09-17T06:52:04;12.52;;;3.20;;
31130;SDS011;20292;50.944;4.034;2022-09-17T06:54:30;7.75;;;2.10;;
31130;SDS011;20292;50.944;4.034;2022-09-17T06:56:55;7.75;;;1.50;;
31130;SDS011;20292;50.944;4.034;2022-09-17T06:59:21;10.65;;;2.05;;
31130;SDS011;20292;50.944;4.034;2022-09-17T07:01:46;6.43;;;1.95;;
31130;SDS011;20292;50.944;4.034;2022-09-17T07:04:12;13.07;;;2.03;;
31130;SDS011;20292;50.944;4.034;2022-09-17T07:06:38;12.35;;;2.05;;
31130;SDS011;20292;50.944;4.034;2022-09-17T07:09:03;7.07;;;1.88;;
31130;SDS011;20292;50.944;4.034;2022-09-17T07:11:31;9.73;;;1.60;;
31130;SDS011;20292;50.944;4.034;2022-09-17T07:13:57;11.02;;;1.80;;
31130;SDS011;20292;50.944;4.034;2022-09-17T07:16:23;9.73;;;1.70;;
31130;SDS011;20292;50.944;4.034;2022-09-17T07:18:50;9.45;;;2.03;;
31130;SDS011;20292;50.944;4.034;2022-09-17T07:21:16;7.88;;;1.70;;
31130;SDS011;20292;50.944;4.034;2022-09-17T07:23:42;13.52;;;2.20;;
31130;SDS011;20292;50.944;4.034;2022-09-17T07:26:12;18.13;;;2.63;;
31130;SDS011;20292;50.944;4.034;2022-09-17T07:28:39;11.15;;;1.75;;
31130;SDS011;20292;50.944;4.034;2022-09-17T07:31:05;13.02;;;1.92;;
31130;SDS011;20292;50.944;4.034;2022-09-17T07:33:31;10.20;;;1.80;;
31130;SDS011;20292;50.944;4.034;2022-09-17T07:35:59;11.32;;;1.98;;
31130;SDS011;20292;50.944;4.034;2022-09-17T07:38:26;11.45;;;1.90;;
31130;SDS011;20292;50.944;4.034;2022-09-17T07:40:57;6.43;;;1.48;;
31130;SDS011;20292;50.944;4.034;2022-09-17T07:43:24;7.63;;;1.48;;
31130;SDS011;20292;50.944;4.034;2022-09-17T07:45:51;10.63;;;2.13;;
31130;SDS011;20292;50.944;4.034;2022-09-17T07:48:17;16.98;;;2.55;;
31130;SDS011;20292;50.944;4.034;2022-09-17T07:50:43;8.60;;;1.42;;
31130;SDS011;20292;50.944;4.034;2022-09-17T07:53:08;10.85;;;2.13;;
31130;SDS011;20292;50.944;4.034;2022-09-17T07:55:34;11.77;;;2.13;;
31130;SDS011;20292;50.944;4.034;2022-09-17T07:57:59;7.95;;;1.40;;
31130;SDS011;20292;50.944;4.034;2022-09-17T08:00:25;9.88;;;1.50;;
31130;SDS011;20292;50.944;4.034;2022-09-17T08:02:51;8.98;;;1.63;;
31130;SDS011;20292;50.944;4.034;2022-09-17T08:05:18;6.60;;;1.73;;
31130;SDS011;20292;50.944;4.034;2022-09-17T08:07:47;9.52;;;1.65;;
31130;SDS011;20292;50.944;4.034;2022-09-17T08:10:13;8.32;;;1.50;;
31130;SDS011;20292;50.944;4.034;2022-09-17T08:12:39;5.13;;;1.27;;
31130;SDS011;20292;50.944;4.034;2022-09-17T08:15:05;9.98;;;1.63;;
31130;SDS011;20292;50.944;4.034;2022-09-17T08:17:31;7.18;;;1.38;;
31130;SDS011;20292;50.944;4.034;2022-09-17T08:19:56;5.20;;;1.30;;
31130;SDS011;20292;50.944;4.034;2022-09-17T08:22:22;5.75;;;1.10;;
31130;SDS011;20292;50.944;4.034;2022-09-17T08:24:48;9.02;;;1.50;;
31130;SDS011;20292;50.944;4.034;2022-09-17T08:27:13;8.45;;;1.10;;
31130;SDS011;20292;50.944;4.034;2022-09-17T08:29:39;8.05;;;1.23;;
31130;SDS011;20292;50.944;4.034;2022-09-17T08:32:04;7.10;;;1.38;;
31130;SDS011;20292;50.944;4.034;2022-09-17T08:34:30;7.53;;;1.20;;
31130;SDS011;20292;50.944;4.034;2022-09-17T08:36:56;11.75;;;1.67;;
31130;SDS011;20292;50.944;4.034;2022-09-17T08:39:21;8.02;;;1.30;;
31130;SDS011;20292;50.944;4.034;2022-09-17T08:41:48;10.75;;;1.50;;
31130;SDS011;20292;50.944;4.034;2022-09-17T08:44:22;6.55;;;1.10;;
31130;SDS011;20292;50.944;4.034;2022-09-17T08:57:51;7.35;;;1.20;;
31130;SDS011;20292;50.944;4.034;2022-09-17T09:00:19;6.10;;;1.38;;
31130;SDS011;20292;50.944;4.034;2022-09-17T09:05:25;7.95;;;1.63;;
31130;SDS011;20292;50.944;4.034;2022-09-17T09:10:48;7.07;;;1.33;;
31130;SDS011;20292;50.944;4.034;2022-09-17T09:13:25;12.70;;;1.80;;
31130;SDS011;20292;50.944;4.034;2022-09-17T09:15:59;6.15;;;1.20;;
31130;SDS011;20292;50.944;4.034;2022-09-17T09:18:32;8.07;;;2.00;;
31130;SDS011;20292;50.944;4.034;2022-09-17T09:26:23;10.98;;;2.30;;
31130;SDS011;20292;50.944;4.034;2022-09-17T09:29:35;8.55;;;2.10;;
31130;SDS011;20292;50.944;4.034;2022-09-17T09:32:05;12.23;;;1.85;;
31130;SDS011;20292;50.944;4.034;2022-09-17T09:34:37;8.00;;;1.90;;
31130;SDS011;20292;50.944;4.034;2022-09-17T09:39:35;8.88;;;1.35;;
31130;SDS011;20292;50.944;4.034;2022-09-17T09:42:04;8.90;;;1.27;;
31130;SDS011;20292;50.944;4.034;2022-09-17T09:45:01;5.55;;;1.15;;
31130;SDS011;20292;50.944;4.034;2022-09-17T09:53:08;4.90;;;1.00;;
31130;SDS011;20292;50.944;4.034;2022-09-17T09:55:47;6.25;;;1.73;;
31130;SDS011;20292;50.944;4.034;2022-09-17T09:58:34;10.73;;;1.67;;
31130;SDS011;20292;50.944;4.034;2022-09-17T10:01:02;8.95;;;1.55;;
31130;SDS011;20292;50.944;4.034;2022-09-17T10:03:29;6.72;;;1.20;;
31130;SDS011;20292;50.944;4.034;2022-09-17T10:08:27;7.35;;;1.23;;
31130;SDS011;20292;50.944;4.034;2022-09-17T10:10:56;3.25;;;1.00;;
31130;SDS011;20292;50.944;4.034;2022-09-17T10:13:21;5.00;;;1.35;;
31130;SDS011;20292;50.944;4.034;2022-09-17T10:15:47;4.82;;;1.15;;
31130;SDS011;20292;50.944;4.034;2022-09-17T10:18:17;5.88;;;0.85;;
31130;SDS011;20292;50.944;4.034;2022-09-17T10:20:48;5.70;;;1.10;;
31130;SDS011;20292;50.944;4.034;2022-09-17T10:23:22;5.95;;;1.33;;
31130;SDS011;20292;50.944;4.034;2022-09-17T10:25:49;3.67;;;1.08;;
31130;SDS011;20292;50.944;4.034;2022-09-17T10:31:13;3.65;;;0.98;;
31130;SDS011;20292;50.944;4.034;2022-09-17T10:33:39;7.00;;;1.10;;
31130;SDS011;20292;50.944;4.034;2022-09-17T10:36:36;6.40;;;1.15;;
31130;SDS011;20292;50.944;4.034;2022-09-17T10:39:29;4.80;;;0.90;;
31130;SDS011;20292;50.944;4.034;2022-09-17T10:42:14;5.93;;;1.00;;
31130;SDS011;20292;50.944;4.034;2022-09-17T10:44:54;7.10;;;1.10;;
31130;SDS011;20292;50.944;4.034;2022-09-17T10:47:33;6.70;;;1.33;;
31130;SDS011;20292;50.944;4.034;2022-09-17T10:50:06;3.67;;;1.30;;
31130;SDS011;20292;50.944;4.034;2022-09-17T10:52:50;3.65;;;1.17;;
31130;SDS011;20292;50.944;4.034;2022-09-17T10:55:32;7.53;;;1.85;;
31130;SDS011;20292;50.944;4.034;2022-09-17T10:58:43;9.15;;;2.10;;
31130;SDS011;20292;50.944;4.034;2022-09-17T11:07:00;5.63;;;1.48;;
31130;SDS011;20292;50.944;4.034;2022-09-17T11:15:12;5.22;;;1.33;;
31130;SDS011;20292;50.944;4.034;2022-09-17T11:18:00;7.53;;;1.40;;
31130;SDS011;20292;50.944;4.034;2022-09-17T11:20:57;6.45;;;1.33;;
31130;SDS011;20292;50.944;4.034;2022-09-17T11:26:31;6.10;;;1.33;;
31130;SDS011;20292;50.944;4.034;2022-09-17T11:39:47;9.30;;;1.70;;
31130;SDS011;20292;50.944;4.034;2022-09-17T11:45:11;12.40;;;1.75;;
31130;SDS011;20292;50.944;4.034;2022-09-17T11:50:49;8.65;;;2.08;;
31130;SDS011;20292;50.944;4.034;2022-09-17T11:53:22;9.00;;;1.40;;
31130;SDS011;20292;50.944;4.034;2022-09-17T11:58:28;9.13;;;1.63;;
31130;SDS011;20292;50.944;4.034;2022-09-17T12:01:08;9.38;;;2.13;;
31130;SDS011;20292;50.944;4.034;2022-09-17T12:03:40;11.23;;;1.63;;
31130;SDS011;20292;50.944;4.034;2022-09-17T12:06:17;9.23;;;1.83;;
31130;SDS011;20292;50.944;4.034;2022-09-17T12:08:58;8.55;;;1.85;;
31130;SDS011;20292;50.944;4.034;2022-09-17T12:14:04;11.18;;;2.15;;
31130;SDS011;20292;50.944;4.034;2022-09-17T12:16:48;13.38;;;2.35;;
31130;SDS011;20292;50.944;4.034;2022-09-17T12:22:18;11.02;;;2.00;;
31130;SDS011;20292;50.944;4.034;2022-09-17T12:24:51;11.25;;;2.00;;
31130;SDS011;20292;50.944;4.034;2022-09-17T12:27:23;10.95;;;2.15;;
31130;SDS011;20292;50.944;4.034;2022-09-17T12:30:16;14.40;;;2.60;;
31130;SDS011;20292;50.944;4.034;2022-09-17T12:51:56;13.68;;;2.03;;
31130;SDS011;20292;50.944;4.034;2022-09-17T12:57:14;11.80;;;1.88;;
31130;SDS011;20292;50.944;4.034;2022-09-17T12:59:59;13.85;;;2.28;;
31130;SDS011;20292;50.944;4.034;2022-09-17T13:10:40;7.75;;;1.70;;
31130;SDS011;20292;50.944;4.034;2022-09-17T13:15:59;8.20;;;1.77;;
31130;SDS011;20292;50.944;4.034;2022-09-17T13:18:43;8.48;;;1.70;;
31130;SDS011;20292;50.944;4.034;2022-09-17T13:21:15;12.93;;;1.73;;
31130;SDS011;20292;50.944;4.034;2022-09-17T13:23:54;12.00;;;2.25;;
31130;SDS011;20292;50.944;4.034;2022-09-17T13:26:21;15.45;;;2.33;;
31130;SDS011;20292;50.944;4.034;2022-09-17T13:28:58;10.13;;;1.55;;
31130;SDS011;20292;50.944;4.034;2022-09-17T13:33:59;9.07;;;1.55;;
31130;SDS011;20292;50.944;4.034;2022-09-17T13:39:54;9.80;;;1.77;;
31130;SDS011;20292;50.944;4.034;2022-09-17T13:42:01;9.30;;;1.73;;
31130;SDS011;20292;50.944;4.034;2022-09-17T13:44:36;7.75;;;1.88;;
31130;SDS011;20292;50.944;4.034;2022-09-17T13:47:09;9.43;;;1.73;;
31130;SDS011;20292;50.944;4.034;2022-09-17T13:49:48;12.07;;;1.58;;
31130;SDS011;20292;50.944;4.034;2022-09-17T14:00:45;13.10;;;2.03;;
31130;SDS011;20292;50.944;4.034;2022-09-17T14:05:52;6.75;;;1.33;;
31130;SDS011;20292;50.944;4.034;2022-09-17T14:08:46;13.25;;;2.28;;
31130;SDS011;20292;50.944;4.034;2022-09-17T14:13:52;6.82;;;2.00;;
31130;SDS011;20292;50.944;4.034;2022-09-17T14:22:13;7.45;;;1.50;;
31130;SDS011;20292;50.944;4.034;2022-09-17T14:24:51;8.45;;;1.27;;
31130;SDS011;20292;50.944;4.034;2022-09-17T14:30:18;16.33;;;2.38;;
31130;SDS011;20292;50.944;4.034;2022-09-17T14:35:58;15.90;;;1.83;;
31130;SDS011;20292;50.944;4.034;2022-09-17T14:40:57;11.10;;;1.92;;
31130;SDS011;20292;50.944;4.034;2022-09-17T14:46:22;6.45;;;1.25;;
31130;SDS011;20292;50.944;4.034;2022-09-17T14:50:08;10.95;;;1.55;;
31130;SDS011;20292;50.944;4.034;2022-09-17T14:52:00;5.18;;;1.30;;
31130;SDS011;20292;50.944;4.034;2022-09-17T14:54:30;5.45;;;1.23;;
31130;SDS011;20292;50.944;4.034;2022-09-17T15:05:31;8.30;;;1.15;;
31130;SDS011;20292;50.944;4.034;2022-09-17T15:10:53;7.25;;;1.38;;
31130;SDS011;20292;50.944;4.034;2022-09-17T15:13:24;6.32;;;1.10;;
31130;SDS011;20292;50.944;4.034;2022-09-17T15:15:57;4.15;;;1.00;;
31130;SDS011;20292;50.944;4.034;2022-09-17T15:18:37;5.28;;;0.90;;
31130;SDS011;20292;50.944;4.034;2022-09-17T15:21:13;5.18;;;1.08;;
31130;SDS011;20292;50.944;4.034;2022-09-17T15:23:41;5.28;;;0.95;;
31130;SDS011;20292;50.944;4.034;2022-09-17T15:26:08;3.50;;;0.85;;
31130;SDS011;20292;50.944;4.034;2022-09-17T15:28:36;3.28;;;1.10;;
31130;SDS011;20292;50.944;4.034;2022-09-17T15:31:05;5.05;;;0.93;;
31130;SDS011;20292;50.944;4.034;2022-09-17T15:33:42;4.60;;;0.88;;
31130;SDS011;20292;50.944;4.034;2022-09-17T15:36:21;6.70;;;1.20;;
31130;SDS011;20292;50.944;4.034;2022-09-17T15:38:48;5.32;;;1.00;;
31130;SDS011;20292;50.944;4.034;2022-09-17T15:44:11;5.93;;;1.67;;
31130;SDS011;20292;50.944;4.034;2022-09-17T15:46:41;4.10;;;1.52;;
31130;SDS011;20292;50.944;4.034;2022-09-17T15:52:37;5.53;;;1.27;;
31130;SDS011;20292;50.944;4.034;2022-09-17T15:55:03;9.45;;;2.95;;
31130;SDS011;20292;50.944;4.034;2022-09-17T15:57:29;5.90;;;1.63;;
31130;SDS011;20292;50.944;4.034;2022-09-17T16:02:51;5.90;;;1.30;;
31130;SDS011;20292;50.944;4.034;2022-09-17T16:07:49;6.35;;;1.60;;
31130;SDS011;20292;50.944;4.034;2022-09-17T16:10:16;6.15;;;1.52;;
31130;SDS011;20292;50.944;4.034;2022-09-17T16:12:41;5.00;;;1.33;;
31130;SDS011;20292;50.944;4.034;2022-09-17T16:15:08;5.57;;;1.98;;
31130;SDS011;20292;50.944;4.034;2022-09-17T16:20:17;7.22;;;1.50;;
31130;SDS011;20292;50.944;4.034;2022-09-17T16:22:46;9.93;;;1.70;;
31130;SDS011;20292;50.944;4.034;2022-09-17T16:25:12;8.55;;;1.63;;
31130;SDS011;20292;50.944;4.034;2022-09-17T16:27:42;8.02;;;1.67;;
31130;SDS011;20292;50.944;4.034;2022-09-17T16:30:22;7.97;;;2.08;;
31130;SDS011;20292;50.944;4.034;2022-09-17T16:32:48;8.27;;;2.10;;
31130;SDS011;20292;50.944;4.034;2022-09-17T16:35:19;11.00;;;1.67;;
31130;SDS011;20292;50.944;4.034;2022-09-17T16:37:49;9.77;;;1.88;;
31130;SDS011;20292;50.944;4.034;2022-09-17T16:40:16;8.25;;;2.00;;
31130;SDS011;20292;50.944;4.034;2022-09-17T16:42:42;7.72;;;1.80;;
31130;SDS011;20292;50.944;4.034;2022-09-17T16:45:08;5.30;;;1.50;;
31130;SDS011;20292;50.944;4.034;2022-09-17T16:47:35;7.78;;;1.58;;
31130;SDS011;20292;50.944;4.034;2022-09-17T16:50:02;8.05;;;2.00;;
31130;SDS011;20292;50.944;4.034;2022-09-17T16:52:33;7.43;;;1.92;;
31130;SDS011;20292;50.944;4.034;2022-09-17T16:54:59;10.73;;;2.78;;
31130;SDS011;20292;50.944;4.034;2022-09-17T16:57:24;12.27;;;2.30;;
31130;SDS011;20292;50.944;4.034;2022-09-17T16:59:50;8.65;;;2.22;;
31130;SDS011;20292;50.944;4.034;2022-09-17T17:02:16;12.00;;;2.33;;
31130;SDS011;20292;50.944;4.034;2022-09-17T17:04:41;6.57;;;1.70;;
31130;SDS011;20292;50.944;4.034;2022-09-17T17:07:07;14.52;;;2.10;;
31130;SDS011;20292;50.944;4.034;2022-09-17T17:09:33;11.38;;;2.00;;
31130;SDS011;20292;50.944;4.034;2022-09-17T17:11:58;16.75;;;2.33;;
31130;SDS011;20292;50.944;4.034;2022-09-17T17:14:24;10.75;;;2.13;;
31130;SDS011;20292;50.944;4.034;2022-09-17T17:16:49;11.73;;;2.10;;
31130;SDS011;20292;50.944;4.034;2022-09-17T17:19:15;9.82;;;2.53;;
31130;SDS011;20292;50.944;4.034;2022-09-17T17:21:41;13.20;;;2.85;;
31130;SDS011;20292;50.944;4.034;2022-09-17T17:24:07;12.70;;;3.00;;
31130;SDS011;20292;50.944;4.034;2022-09-17T17:26:33;10.38;;;2.10;;
31130;SDS011;20292;50.944;4.034;2022-09-17T17:28:58;9.02;;;2.47;;
31130;SDS011;20292;50.944;4.034;2022-09-17T17:31:25;11.35;;;2.50;;
31130;SDS011;20292;50.944;4.034;2022-09-17T17:33:51;13.48;;;2.50;;
31130;SDS011;20292;50.944;4.034;2022-09-17T17:36:16;15.57;;;2.60;;
31130;SDS011;20292;50.944;4.034;2022-09-17T17:38:42;12.55;;;2.55;;
31130;SDS011;20292;50.944;4.034;2022-09-17T17:41:08;12.25;;;2.25;;
31130;SDS011;20292;50.944;4.034;2022-09-17T17:43:35;9.32;;;2.42;;
31130;SDS011;20292;50.944;4.034;2022-09-17T17:46:04;10.30;;;2.40;;
31130;SDS011;20292;50.944;4.034;2022-09-17T17:48:30;12.88;;;2.83;;
31130;SDS011;20292;50.944;4.034;2022-09-17T17:51:03;11.32;;;2.22;;
31130;SDS011;20292;50.944;4.034;2022-09-17T17:53:30;11.70;;;2.58;;
31130;SDS011;20292;50.944;4.034;2022-09-17T17:56:00;11.80;;;3.10;;
31130;SDS011;20292;50.944;4.034;2022-09-17T17:58:27;10.48;;;2.97;;
31130;SDS011;20292;50.944;4.034;2022-09-17T18:00:53;11.60;;;2.33;;
31130;SDS011;20292;50.944;4.034;2022-09-17T18:03:20;13.25;;;2.78;;
31130;SDS011;20292;50.944;4.034;2022-09-17T18:05:49;10.90;;;2.22;;
31130;SDS011;20292;50.944;4.034;2022-09-17T18:08:16;11.68;;;2.80;;
31130;SDS011;20292;50.944;4.034;2022-09-17T18:10:49;14.27;;;3.33;;
31130;SDS011;20292;50.944;4.034;2022-09-17T18:13:18;13.45;;;3.00;;
31130;SDS011;20292;50.944;4.034;2022-09-17T18:15:54;14.48;;;3.05;;
31130;SDS011;20292;50.944;4.034;2022-09-17T18:18:21;11.15;;;2.85;;
31130;SDS011;20292;50.944;4.034;2022-09-17T18:20:47;10.48;;;2.72;;